Main page
METAR-TAF:

METAR-TAF

Airports :

Agra, India

Agra Airport

latitude: 27-09-27N, longitude: 077-57-39E, elevation: 168 m

Current weather observation

The report was made 1 hour and 15 minutes ago, at 01:30 UTC
Wind 3 kt from the South
Temperature 26°C
Humidity 100%
Pressure 998 hPa
Visibility: 4000 m
Scattered clouds at a height of 600 ft
Scattered clouds at a height of 1000 ft
Broken clouds at a height of 8000 ft
light rain, mist

METAR: VIAG 240130Z 17003KT 4000 -RABR SCT006 SCT010 BKN080 26/26 Q0998 NOSIG

Time: 08:15 (02:45 UTC)


TAF: missing

Weather observations and forecasts of more than 4000 airports (METAR and TAF reports).

The available stations are represented by yellow and red dots on the map.

Hover mouse over dot to see the name of the station.

Then click to see weather observations and forecasts.

To change the map : click on the green buttons with a black cross to zoom in, on the green button with a dash to zoom out, or on the green arrows for adjacent maps.


METAR-TAF: